sensor_id;sensor_type;location;lat;lon;timestamp;temperature;humidity
49242;DHT22;35079;52.704;13.814;2022-11-20T00:03:35;1.40;99.90
49242;DHT22;35079;52.704;13.814;2022-11-20T00:06:06;1.40;99.90
49242;DHT22;35079;52.704;13.814;2022-11-20T00:08:32;1.50;99.90
49242;DHT22;35079;52.704;13.814;2022-11-20T00:11:06;1.50;99.90
49242;DHT22;35079;52.704;13.814;2022-11-20T00:13:32;1.40;99.90
49242;DHT22;35079;52.704;13.814;2022-11-20T00:15:59;1.40;99.90
49242;DHT22;35079;52.704;13.814;2022-11-20T00:18:25;1.40;99.90
49242;DHT22;35079;52.704;13.814;2022-11-20T00:20:51;1.40;99.90
49242;DHT22;35079;52.704;13.814;2022-11-20T00:23:17;1.40;99.90
49242;DHT22;35079;52.704;13.814;2022-11-20T00:25:42;1.50;99.90
49242;DHT22;35079;52.704;13.814;2022-11-20T00:28:08;1.50;99.90
49242;DHT22;35079;52.704;13.814;2022-11-20T00:30:34;1.40;99.90
49242;DHT22;35079;52.704;13.814;2022-11-20T00:32:59;1.40;99.90
49242;DHT22;35079;52.704;13.814;2022-11-20T00:35:25;1.60;99.90
49242;DHT22;35079;52.704;13.814;2022-11-20T00:37:50;1.40;99.90
49242;DHT22;35079;52.704;13.814;2022-11-20T00:40:16;1.40;99.90
49242;DHT22;35079;52.704;13.814;2022-11-20T00:42:42;1.50;99.90
49242;DHT22;35079;52.704;13.814;2022-11-20T00:45:07;1.40;99.90
49242;DHT22;35079;52.704;13.814;2022-11-20T00:47:33;1.40;99.90
49242;DHT22;35079;52.704;13.814;2022-11-20T00:49:59;1.50;99.90
49242;DHT22;35079;52.704;13.814;2022-11-20T00:52:24;1.40;99.90
49242;DHT22;35079;52.704;13.814;2022-11-20T00:54:50;1.40;99.90
49242;DHT22;35079;52.704;13.814;2022-11-20T00:57:15;1.30;99.90
49242;DHT22;35079;52.704;13.814;2022-11-20T00:59:41;1.30;99.90
49242;DHT22;35079;52.704;13.814;2022-11-20T01:02:06;1.30;99.90
49242;DHT22;35079;52.704;13.814;2022-11-20T01:04:32;1.30;99.90
49242;DHT22;35079;52.704;13.814;2022-11-20T01:06:58;1.40;99.90
49242;DHT22;35079;52.704;13.814;2022-11-20T01:09:23;1.30;99.90
49242;DHT22;35079;52.704;13.814;2022-11-20T01:11:49;1.20;99.90
49242;DHT22;35079;52.704;13.814;2022-11-20T01:14:18;1.30;99.90
49242;DHT22;35079;52.704;13.814;2022-11-20T01:16:47;1.30;99.90
49242;DHT22;35079;52.704;13.814;2022-11-20T01:19:19;1.30;99.90
49242;DHT22;35079;52.704;13.814;2022-11-20T01:21:47;1.30;99.90
49242;DHT22;35079;52.704;13.814;2022-11-20T01:24:15;1.30;99.90
49242;DHT22;35079;52.704;13.814;2022-11-20T01:26:43;1.30;99.90
49242;DHT22;35079;52.704;13.814;2022-11-20T01:29:15;1.20;99.90
49242;DHT22;35079;52.704;13.814;2022-11-20T01:31:41;1.20;99.90
49242;DHT22;35079;52.704;13.814;2022-11-20T01:34:10;1.30;99.90
49242;DHT22;35079;52.704;13.814;2022-11-20T01:36:37;1.30;99.90
49242;DHT22;35079;52.704;13.814;2022-11-20T01:39:10;1.30;99.90
49242;DHT22;35079;52.704;13.814;2022-11-20T01:41:36;1.30;99.90
49242;DHT22;35079;52.704;13.814;2022-11-20T01:47:09;1.30;99.90
49242;DHT22;35079;52.704;13.814;2022-11-20T01:49:44;1.20;99.90
49242;DHT22;35079;52.704;13.814;2022-11-20T01:52:27;1.20;99.90
49242;DHT22;35079;52.704;13.814;2022-11-20T01:55:09;1.20;99.90
49242;DHT22;35079;52.704;13.814;2022-11-20T01:57:37;1.30;99.90
49242;DHT22;35079;52.704;13.814;2022-11-20T02:00:10;1.20;99.90
49242;DHT22;35079;52.704;13.814;2022-11-20T02:02:37;1.20;99.90
49242;DHT22;35079;52.704;13.814;2022-11-20T02:05:18;1.20;99.90
49242;DHT22;35079;52.704;13.814;2022-11-20T02:07:46;1.20;99.90
49242;DHT22;35079;52.704;13.814;2022-11-20T02:10:12;1.20;99.90
49242;DHT22;35079;52.704;13.814;2022-11-20T02:12:38;1.10;99.90
49242;DHT22;35079;52.704;13.814;2022-11-20T02:15:22;1.10;99.90
49242;DHT22;35079;52.704;13.814;2022-11-20T02:17:48;1.20;99.90
49242;DHT22;35079;52.704;13.814;2022-11-20T02:20:14;1.10;99.90
49242;DHT22;35079;52.704;13.814;2022-11-20T02:25:20;1.20;99.90
49242;DHT22;35079;52.704;13.814;2022-11-20T02:27:46;1.20;99.90
49242;DHT22;35079;52.704;13.814;2022-11-20T02:30:26;1.20;99.90
49242;DHT22;35079;52.704;13.814;2022-11-20T02:32:51;1.20;99.90
49242;DHT22;35079;52.704;13.814;2022-11-20T02:37:53;1.30;99.90
49242;DHT22;35079;52.704;13.814;2022-11-20T02:40:19;1.20;99.90
49242;DHT22;35079;52.704;13.814;2022-11-20T02:42:45;1.30;99.90
49242;DHT22;35079;52.704;13.814;2022-11-20T02:45:10;1.20;99.90
49242;DHT22;35079;52.704;13.814;2022-11-20T02:47:36;1.20;99.90
49242;DHT22;35079;52.704;13.814;2022-11-20T02:50:02;1.20;99.90
49242;DHT22;35079;52.704;13.814;2022-11-20T02:52:28;1.10;99.90
49242;DHT22;35079;52.704;13.814;2022-11-20T02:54:54;1.20;99.90
49242;DHT22;35079;52.704;13.814;2022-11-20T02:57:19;1.10;99.90
49242;DHT22;35079;52.704;13.814;2022-11-20T02:59:45;1.10;99.90
49242;DHT22;35079;52.704;13.814;2022-11-20T03:02:10;1.10;99.90
49242;DHT22;35079;52.704;13.814;2022-11-20T03:04:36;1.20;99.90
49242;DHT22;35079;52.704;13.814;2022-11-20T03:07:02;1.10;99.90
49242;DHT22;35079;52.704;13.814;2022-11-20T03:09:28;1.20;99.90
49242;DHT22;35079;52.704;13.814;2022-11-20T03:11:53;1.30;99.90
49242;DHT22;35079;52.704;13.814;2022-11-20T03:14:19;1.20;99.90
49242;DHT22;35079;52.704;13.814;2022-11-20T03:16:45;1.20;99.90
49242;DHT22;35079;52.704;13.814;2022-11-20T03:19:11;1.20;99.90
49242;DHT22;35079;52.704;13.814;2022-11-20T03:21:37;1.20;99.90
49242;DHT22;35079;52.704;13.814;2022-11-20T03:24:03;1.20;99.90
49242;DHT22;35079;52.704;13.814;2022-11-20T03:26:29;1.20;99.90
49242;DHT22;35079;52.704;13.814;2022-11-20T03:28:57;1.20;99.90
49242;DHT22;35079;52.704;13.814;2022-11-20T03:31:28;1.30;99.90
49242;DHT22;35079;52.704;13.814;2022-11-20T03:33:55;1.20;99.90
49242;DHT22;35079;52.704;13.814;2022-11-20T03:36:21;1.10;99.90
49242;DHT22;35079;52.704;13.814;2022-11-20T03:38:47;1.00;99.90
49242;DHT22;35079;52.704;13.814;2022-11-20T03:41:18;1.10;99.90
49242;DHT22;35079;52.704;13.814;2022-11-20T03:43:52;1.10;99.90
49242;DHT22;35079;52.704;13.814;2022-11-20T03:46:18;1.10;99.90
49242;DHT22;35079;52.704;13.814;2022-11-20T03:48:44;1.10;99.90
49242;DHT22;35079;52.704;13.814;2022-11-20T03:53:41;1.30;99.90
49242;DHT22;35079;52.704;13.814;2022-11-20T03:56:07;1.10;99.90
49242;DHT22;35079;52.704;13.814;2022-11-20T03:58:35;1.20;99.90
49242;DHT22;35079;52.704;13.814;2022-11-20T04:01:18;1.20;99.90
49242;DHT22;35079;52.704;13.814;2022-11-20T04:03:45;1.20;99.90
49242;DHT22;35079;52.704;13.814;2022-11-20T04:06:14;1.10;99.90
49242;DHT22;35079;52.704;13.814;2022-11-20T04:08:40;1.20;99.90
49242;DHT22;35079;52.704;13.814;2022-11-20T04:14:13;1.20;99.90
49242;DHT22;35079;52.704;13.814;2022-11-20T04:16:38;1.20;99.90
49242;DHT22;35079;52.704;13.814;2022-11-20T04:19:06;1.20;99.90
49242;DHT22;35079;52.704;13.814;2022-11-20T04:21:32;1.20;99.90
49242;DHT22;35079;52.704;13.814;2022-11-20T04:23:58;1.10;99.90
49242;DHT22;35079;52.704;13.814;2022-11-20T04:26:25;1.10;99.90
49242;DHT22;35079;52.704;13.814;2022-11-20T04:28:51;1.10;99.90
49242;DHT22;35079;52.704;13.814;2022-11-20T04:31:19;1.10;99.90
49242;DHT22;35079;52.704;13.814;2022-11-20T04:33:45;1.10;99.90
49242;DHT22;35079;52.704;13.814;2022-11-20T04:36:19;1.00;99.90
49242;DHT22;35079;52.704;13.814;2022-11-20T04:38:45;1.10;99.90
49242;DHT22;35079;52.704;13.814;2022-11-20T04:41:16;1.10;99.90
49242;DHT22;35079;52.704;13.814;2022-11-20T04:43:49;1.10;99.90
49242;DHT22;35079;52.704;13.814;2022-11-20T04:46:19;1.20;99.90
49242;DHT22;35079;52.704;13.814;2022-11-20T04:48:45;1.20;99.90
49242;DHT22;35079;52.704;13.814;2022-11-20T04:51:11;1.20;99.90
49242;DHT22;35079;52.704;13.814;2022-11-20T04:53:37;1.00;99.90
49242;DHT22;35079;52.704;13.814;2022-11-20T04:56:05;1.10;99.90
49242;DHT22;35079;52.704;13.814;2022-11-20T04:58:31;1.10;99.90
49242;DHT22;35079;52.704;13.814;2022-11-20T05:01:05;1.10;99.90
49242;DHT22;35079;52.704;13.814;2022-11-20T05:03:31;1.10;99.90
49242;DHT22;35079;52.704;13.814;2022-11-20T05:06:00;1.10;99.90
49242;DHT22;35079;52.704;13.814;2022-11-20T05:08:27;1.10;99.90
49242;DHT22;35079;52.704;13.814;2022-11-20T05:10:52;1.20;99.90
49242;DHT22;35079;52.704;13.814;2022-11-20T05:13:18;1.10;99.90
49242;DHT22;35079;52.704;13.814;2022-11-20T05:15:43;1.20;99.90
49242;DHT22;35079;52.704;13.814;2022-11-20T05:18:09;1.20;99.90
49242;DHT22;35079;52.704;13.814;2022-11-20T05:20:35;1.10;99.90
49242;DHT22;35079;52.704;13.814;2022-11-20T05:23:01;1.10;99.90
49242;DHT22;35079;52.704;13.814;2022-11-20T05:25:27;1.30;99.90
49242;DHT22;35079;52.704;13.814;2022-11-20T05:27:53;1.20;99.90
49242;DHT22;35079;52.704;13.814;2022-11-20T05:30:18;1.20;99.90
49242;DHT22;35079;52.704;13.814;2022-11-20T05:32:44;1.20;99.90
49242;DHT22;35079;52.704;13.814;2022-11-20T05:35:10;1.10;99.90
49242;DHT22;35079;52.704;13.814;2022-11-20T05:37:35;1.20;99.90
49242;DHT22;35079;52.704;13.814;2022-11-20T05:40:01;1.10;99.90
49242;DHT22;35079;52.704;13.814;2022-11-20T05:42:30;1.10;99.90
49242;DHT22;35079;52.704;13.814;2022-11-20T05:45:00;1.10;99.90
49242;DHT22;35079;52.704;13.814;2022-11-20T05:47:27;1.10;99.90
49242;DHT22;35079;52.704;13.814;2022-11-20T05:49:52;1.00;99.90
49242;DHT22;35079;52.704;13.814;2022-11-20T05:52:19;1.10;99.90
49242;DHT22;35079;52.704;13.814;2022-11-20T05:54:44;1.20;99.90
49242;DHT22;35079;52.704;13.814;2022-11-20T05:57:10;1.20;99.90
49242;DHT22;35079;52.704;13.814;2022-11-20T05:59:44;1.10;99.90
49242;DHT22;35079;52.704;13.814;2022-11-20T06:02:09;1.10;99.90
49242;DHT22;35079;52.704;13.814;2022-11-20T06:04:35;1.10;99.90
49242;DHT22;35079;52.704;13.814;2022-11-20T06:07:01;1.10;99.90
49242;DHT22;35079;52.704;13.814;2022-11-20T06:09:27;1.00;99.90
49242;DHT22;35079;52.704;13.814;2022-11-20T06:11:53;1.00;99.90
49242;DHT22;35079;52.704;13.814;2022-11-20T06:14:19;0.80;99.90
49242;DHT22;35079;52.704;13.814;2022-11-20T06:16:44;0.90;99.90
49242;DHT22;35079;52.704;13.814;2022-11-20T06:19:10;1.10;99.90
49242;DHT22;35079;52.704;13.814;2022-11-20T06:21:35;0.80;99.90
49242;DHT22;35079;52.704;13.814;2022-11-20T06:24:01;0.80;99.90
49242;DHT22;35079;52.704;13.814;2022-11-20T06:26:27;0.80;99.90
49242;DHT22;35079;52.704;13.814;2022-11-20T06:28:53;0.80;99.90
49242;DHT22;35079;52.704;13.814;2022-11-20T06:31:23;0.80;99.90
49242;DHT22;35079;52.704;13.814;2022-11-20T06:33:49;0.70;99.90
49242;DHT22;35079;52.704;13.814;2022-11-20T06:36:16;0.70;99.90
49242;DHT22;35079;52.704;13.814;2022-11-20T06:38:44;0.80;99.90
49242;DHT22;35079;52.704;13.814;2022-11-20T06:41:15;0.80;99.90
49242;DHT22;35079;52.704;13.814;2022-11-20T06:43:41;0.70;99.90
49242;DHT22;35079;52.704;13.814;2022-11-20T06:46:08;0.70;99.90
49242;DHT22;35079;52.704;13.814;2022-11-20T06:48:34;0.80;99.90
49242;DHT22;35079;52.704;13.814;2022-11-20T06:51:03;0.80;99.90
49242;DHT22;35079;52.704;13.814;2022-11-20T06:53:28;0.70;99.90
49242;DHT22;35079;52.704;13.814;2022-11-20T06:55:56;0.60;99.90
49242;DHT22;35079;52.704;13.814;2022-11-20T06:58:23;0.60;99.90
49242;DHT22;35079;52.704;13.814;2022-11-20T07:00:49;0.60;99.90
49242;DHT22;35079;52.704;13.814;2022-11-20T07:03:14;0.70;99.90
49242;DHT22;35079;52.704;13.814;2022-11-20T07:05:40;0.80;99.90
49242;DHT22;35079;52.704;13.814;2022-11-20T07:08:06;0.70;99.90
49242;DHT22;35079;52.704;13.814;2022-11-20T07:10:36;0.70;99.90
49242;DHT22;35079;52.704;13.814;2022-11-20T07:13:02;0.60;99.90
49242;DHT22;35079;52.704;13.814;2022-11-20T07:15:27;0.50;99.90
49242;DHT22;35079;52.704;13.814;2022-11-20T07:17:53;0.80;99.90
49242;DHT22;35079;52.704;13.814;2022-11-20T07:20:18;0.70;99.90
49242;DHT22;35079;52.704;13.814;2022-11-20T07:22:44;0.40;99.90
49242;DHT22;35079;52.704;13.814;2022-11-20T07:25:10;0.50;99.90
49242;DHT22;35079;52.704;13.814;2022-11-20T07:27:36;0.60;99.90
49242;DHT22;35079;52.704;13.814;2022-11-20T07:30:02;0.50;99.90
49242;DHT22;35079;52.704;13.814;2022-11-20T07:32:28;0.60;99.90
49242;DHT22;35079;52.704;13.814;2022-11-20T07:34:54;0.50;99.90
49242;DHT22;35079;52.704;13.814;2022-11-20T07:37:19;0.50;99.90
49242;DHT22;35079;52.704;13.814;2022-11-20T07:39:45;0.50;99.90
49242;DHT22;35079;52.704;13.814;2022-11-20T07:42:10;0.50;99.90
49242;DHT22;35079;52.704;13.814;2022-11-20T07:44:37;0.60;99.90
49242;DHT22;35079;52.704;13.814;2022-11-20T07:47:03;0.60;99.90
49242;DHT22;35079;52.704;13.814;2022-11-20T07:49:29;0.60;99.90
49242;DHT22;35079;52.704;13.814;2022-11-20T07:51:54;0.70;99.90
49242;DHT22;35079;52.704;13.814;2022-11-20T07:54:20;0.70;99.90
49242;DHT22;35079;52.704;13.814;2022-11-20T07:56:47;0.80;99.90
49242;DHT22;35079;52.704;13.814;2022-11-20T07:59:13;0.90;99.90
49242;DHT22;35079;52.704;13.814;2022-11-20T08:01:42;0.90;99.90
49242;DHT22;35079;52.704;13.814;2022-11-20T08:04:09;0.90;99.90
49242;DHT22;35079;52.704;13.814;2022-11-20T08:06:35;1.00;99.90
49242;DHT22;35079;52.704;13.814;2022-11-20T08:09:01;0.90;99.90
49242;DHT22;35079;52.704;13.814;2022-11-20T08:11:27;1.00;99.90
49242;DHT22;35079;52.704;13.814;2022-11-20T08:14:12;0.90;99.90
49242;DHT22;35079;52.704;13.814;2022-11-20T08:16:44;1.10;99.90
49242;DHT22;35079;52.704;13.814;2022-11-20T08:19:10;1.20;99.90
49242;DHT22;35079;52.704;13.814;2022-11-20T08:21:37;1.40;99.90
49242;DHT22;35079;52.704;13.814;2022-11-20T08:24:02;1.20;99.90
49242;DHT22;35079;52.704;13.814;2022-11-20T08:26:28;1.20;99.90
49242;DHT22;35079;52.704;13.814;2022-11-20T08:28:55;1.30;99.90
49242;DHT22;35079;52.704;13.814;2022-11-20T08:31:22;1.20;99.90
49242;DHT22;35079;52.704;13.814;2022-11-20T08:33:48;1.30;99.90
49242;DHT22;35079;52.704;13.814;2022-11-20T08:36:13;1.50;99.90
49242;DHT22;35079;52.704;13.814;2022-11-20T08:38:39;1.50;99.90
49242;DHT22;35079;52.704;13.814;2022-11-20T08:41:05;1.60;99.90
49242;DHT22;35079;52.704;13.814;2022-11-20T08:43:50;1.50;99.90
49242;DHT22;35079;52.704;13.814;2022-11-20T08:46:16;1.60;99.90
49242;DHT22;35079;52.704;13.814;2022-11-20T08:48:47;1.80;99.90
49242;DHT22;35079;52.704;13.814;2022-11-20T08:51:13;1.90;99.90
49242;DHT22;35079;52.704;13.814;2022-11-20T08:53:39;1.90;99.90
49242;DHT22;35079;52.704;13.814;2022-11-20T08:56:06;2.10;99.90
49242;DHT22;35079;52.704;13.814;2022-11-20T08:58:32;2.20;99.90
49242;DHT22;35079;52.704;13.814;2022-11-20T09:00:57;2.30;99.90
49242;DHT22;35079;52.704;13.814;2022-11-20T09:03:23;2.40;99.90
49242;DHT22;35079;52.704;13.814;2022-11-20T09:05:49;2.30;99.90
49242;DHT22;35079;52.704;13.814;2022-11-20T09:08:14;2.50;99.90
49242;DHT22;35079;52.704;13.814;2022-11-20T09:10:40;2.30;99.90
49242;DHT22;35079;52.704;13.814;2022-11-20T09:13:06;2.30;99.90
49242;DHT22;35079;52.704;13.814;2022-11-20T09:15:32;2.40;99.90
49242;DHT22;35079;52.704;13.814;2022-11-20T09:18:00;2.30;99.90
49242;DHT22;35079;52.704;13.814;2022-11-20T09:20:27;2.20;99.90
49242;DHT22;35079;52.704;13.814;2022-11-20T09:22:54;2.10;99.90
49242;DHT22;35079;52.704;13.814;2022-11-20T09:25:21;2.10;99.90
49242;DHT22;35079;52.704;13.814;2022-11-20T09:27:46;2.20;99.90
49242;DHT22;35079;52.704;13.814;2022-11-20T09:30:14;2.20;99.90
49242;DHT22;35079;52.704;13.814;2022-11-20T09:32:40;2.20;99.90
49242;DHT22;35079;52.704;13.814;2022-11-20T09:35:08;1.90;99.90
49242;DHT22;35079;52.704;13.814;2022-11-20T09:37:36;2.00;99.90
49242;DHT22;35079;52.704;13.814;2022-11-20T09:40:02;2.20;99.90
49242;DHT22;35079;52.704;13.814;2022-11-20T09:55:49;2.90;99.90
49242;DHT22;35079;52.704;13.814;2022-11-20T09:58:35;3.10;99.90
49242;DHT22;35079;52.704;13.814;2022-11-20T10:01:16;3.40;99.90
49242;DHT22;35079;52.704;13.814;2022-11-20T10:06:32;3.60;99.90
49242;DHT22;35079;52.704;13.814;2022-11-20T10:09:21;3.70;99.90
49242;DHT22;35079;52.704;13.814;2022-11-20T10:25:24;3.70;99.90
49242;DHT22;35079;52.704;13.814;2022-11-20T10:30:31;3.90;99.90
49242;DHT22;35079;52.704;13.814;2022-11-20T10:33:13;3.80;99.90
49242;DHT22;35079;52.704;13.814;2022-11-20T10:35:49;3.60;99.90
49242;DHT22;35079;52.704;13.814;2022-11-20T10:38:23;3.80;99.90
49242;DHT22;35079;52.704;13.814;2022-11-20T10:41:02;4.10;99.90
49242;DHT22;35079;52.704;13.814;2022-11-20T10:43:48;4.20;99.90
49242;DHT22;35079;52.704;13.814;2022-11-20T10:46:20;4.30;99.90
49242;DHT22;35079;52.704;13.814;2022-11-20T10:48:48;4.30;99.90
49242;DHT22;35079;52.704;13.814;2022-11-20T10:56:46;4.40;99.90
49242;DHT22;35079;52.704;13.814;2022-11-20T10:59:52;4.20;99.90
49242;DHT22;35079;52.704;13.814;2022-11-20T11:02:22;4.20;99.90
49242;DHT22;35079;52.704;13.814;2022-11-20T11:04:53;4.00;99.90
49242;DHT22;35079;52.704;13.814;2022-11-20T11:07:33;3.80;99.90
49242;DHT22;35079;52.704;13.814;2022-11-20T11:10:00;3.50;99.90
49242;DHT22;35079;52.704;13.814;2022-11-20T11:12:28;3.50;99.90
49242;DHT22;35079;52.704;13.814;2022-11-20T11:14:56;3.50;99.90
49242;DHT22;35079;52.704;13.814;2022-11-20T11:22:25;3.40;99.90
49242;DHT22;35079;52.704;13.814;2022-11-20T11:24:53;3.40;99.90
49242;DHT22;35079;52.704;13.814;2022-11-20T11:27:19;3.40;99.90
49242;DHT22;35079;52.704;13.814;2022-11-20T11:29:46;3.40;99.90
49242;DHT22;35079;52.704;13.814;2022-11-20T11:34:39;3.50;99.90
49242;DHT22;35079;52.704;13.814;2022-11-20T11:37:05;3.30;99.90
49242;DHT22;35079;52.704;13.814;2022-11-20T11:39:39;3.50;99.90
49242;DHT22;35079;52.704;13.814;2022-11-20T11:42:16;3.40;99.90
49242;DHT22;35079;52.704;13.814;2022-11-20T11:44:47;2.80;99.90
49242;DHT22;35079;52.704;13.814;2022-11-20T11:47:47;2.50;99.90
49242;DHT22;35079;52.704;13.814;2022-11-20T11:50:20;2.60;99.90
49242;DHT22;35079;52.704;13.814;2022-11-20T11:52:54;2.50;99.90
49242;DHT22;35079;52.704;13.814;2022-11-20T12:01:04;2.60;99.90
49242;DHT22;35079;52.704;13.814;2022-11-20T12:03:38;2.70;99.90
49242;DHT22;35079;52.704;13.814;2022-11-20T12:06:13;3.00;99.90
49242;DHT22;35079;52.704;13.814;2022-11-20T12:16:35;2.80;99.90
49242;DHT22;35079;52.704;13.814;2022-11-20T12:19:01;2.90;99.90
49242;DHT22;35079;52.704;13.814;2022-11-20T12:21:35;2.80;99.90
49242;DHT22;35079;52.704;13.814;2022-11-20T12:37:48;2.10;99.90
49242;DHT22;35079;52.704;13.814;2022-11-20T12:40:47;2.10;99.90
49242;DHT22;35079;52.704;13.814;2022-11-20T12:46:18;1.90;99.90
49242;DHT22;35079;52.704;13.814;2022-11-20T12:49:09;1.90;99.90
49242;DHT22;35079;52.704;13.814;2022-11-20T12:56:43;2.00;99.90
49242;DHT22;35079;52.704;13.814;2022-11-20T13:01:49;2.20;99.90
49242;DHT22;35079;52.704;13.814;2022-11-20T13:06:43;2.30;99.90
49242;DHT22;35079;52.704;13.814;2022-11-20T13:09:13;2.40;99.90
49242;DHT22;35079;52.704;13.814;2022-11-20T13:14:40;2.30;99.90
49242;DHT22;35079;52.704;13.814;2022-11-20T13:20:14;2.20;99.90
49242;DHT22;35079;52.704;13.814;2022-11-20T13:22:54;2.30;99.90
49242;DHT22;35079;52.704;13.814;2022-11-20T13:25:27;2.20;99.90
49242;DHT22;35079;52.704;13.814;2022-11-20T13:27:54;2.20;99.90
49242;DHT22;35079;52.704;13.814;2022-11-20T13:30:25;2.20;99.90
49242;DHT22;35079;52.704;13.814;2022-11-20T13:33:01;2.20;99.90
49242;DHT22;35079;52.704;13.814;2022-11-20T13:35:33;2.20;99.90
49242;DHT22;35079;52.704;13.814;2022-11-20T13:38:10;2.10;99.90
49242;DHT22;35079;52.704;13.814;2022-11-20T13:40:58;2.20;99.90
49242;DHT22;35079;52.704;13.814;2022-11-20T13:43:40;2.20;99.90
49242;DHT22;35079;52.704;13.814;2022-11-20T13:46:08;2.30;99.90
49242;DHT22;35079;52.704;13.814;2022-11-20T13:48:39;2.40;99.90
49242;DHT22;35079;52.704;13.814;2022-11-20T13:51:37;2.30;99.90
49242;DHT22;35079;52.704;13.814;2022-11-20T13:59:36;2.50;99.90
49242;DHT22;35079;52.704;13.814;2022-11-20T14:02:13;2.50;99.90
49242;DHT22;35079;52.704;13.814;2022-11-20T14:04:45;2.50;99.90
49242;DHT22;35079;52.704;13.814;2022-11-20T14:07:12;2.40;99.90
49242;DHT22;35079;52.704;13.814;2022-11-20T14:09:37;2.50;99.90
49242;DHT22;35079;52.704;13.814;2022-11-20T14:12:12;2.40;99.90
49242;DHT22;35079;52.704;13.814;2022-11-20T14:14:51;2.30;99.90
49242;DHT22;35079;52.704;13.814;2022-11-20T14:19:44;2.30;99.90
49242;DHT22;35079;52.704;13.814;2022-11-20T14:22:21;2.30;99.90
49242;DHT22;35079;52.704;13.814;2022-11-20T14:24:48;2.20;99.90
49242;DHT22;35079;52.704;13.814;2022-11-20T14:27:20;2.20;99.90
49242;DHT22;35079;52.704;13.814;2022-11-20T14:29:48;2.10;99.90
49242;DHT22;35079;52.704;13.814;2022-11-20T14:32:17;2.00;99.90
49242;DHT22;35079;52.704;13.814;2022-11-20T14:34:44;2.00;99.90
49242;DHT22;35079;52.704;13.814;2022-11-20T14:37:13;2.00;99.90
49242;DHT22;35079;52.704;13.814;2022-11-20T14:39:54;2.00;99.90
49242;DHT22;35079;52.704;13.814;2022-11-20T14:42:25;1.80;99.90
49242;DHT22;35079;52.704;13.814;2022-11-20T14:44:54;1.80;99.90
49242;DHT22;35079;52.704;13.814;2022-11-20T14:47:23;1.80;99.90
49242;DHT22;35079;52.704;13.814;2022-11-20T14:49:51;1.70;99.90
49242;DHT22;35079;52.704;13.814;2022-11-20T14:52:20;1.70;99.90
49242;DHT22;35079;52.704;13.814;2022-11-20T14:54:49;1.70;99.90
49242;DHT22;35079;52.704;13.814;2022-11-20T14:57:26;1.70;99.90
49242;DHT22;35079;52.704;13.814;2022-11-20T15:02:43;1.70;99.90
49242;DHT22;35079;52.704;13.814;2022-11-20T15:05:09;1.80;99.90
49242;DHT22;35079;52.704;13.814;2022-11-20T15:07:37;1.70;99.90
49242;DHT22;35079;52.704;13.814;2022-11-20T15:10:09;1.70;99.90
49242;DHT22;35079;52.704;13.814;2022-11-20T15:12:41;1.70;99.90
49242;DHT22;35079;52.704;13.814;2022-11-20T15:15:12;1.70;99.90
49242;DHT22;35079;52.704;13.814;2022-11-20T15:17:40;1.60;99.90
49242;DHT22;35079;52.704;13.814;2022-11-20T15:20:35;1.60;99.90
49242;DHT22;35079;52.704;13.814;2022-11-20T15:23:01;1.60;99.90
49242;DHT22;35079;52.704;13.814;2022-11-20T15:25:27;1.60;99.90
49242;DHT22;35079;52.704;13.814;2022-11-20T15:27:56;1.50;99.90
49242;DHT22;35079;52.704;13.814;2022-11-20T15:30:22;1.60;99.90
49242;DHT22;35079;52.704;13.814;2022-11-20T15:32:48;1.50;99.90
49242;DHT22;35079;52.704;13.814;2022-11-20T15:35:15;1.50;99.90
49242;DHT22;35079;52.704;13.814;2022-11-20T15:37:41;1.50;99.90
49242;DHT22;35079;52.704;13.814;2022-11-20T15:40:07;1.60;99.90
49242;DHT22;35079;52.704;13.814;2022-11-20T15:42:33;1.60;99.90
49242;DHT22;35079;52.704;13.814;2022-11-20T15:44:59;1.70;99.90
49242;DHT22;35079;52.704;13.814;2022-11-20T15:47:31;1.50;99.90
49242;DHT22;35079;52.704;13.814;2022-11-20T15:49:57;1.60;99.90
49242;DHT22;35079;52.704;13.814;2022-11-20T15:52:23;1.50;99.90
49242;DHT22;35079;52.704;13.814;2022-11-20T15:54:49;1.50;99.90
49242;DHT22;35079;52.704;13.814;2022-11-20T15:57:14;1.50;99.90
49242;DHT22;35079;52.704;13.814;2022-11-20T15:59:40;1.60;99.90
49242;DHT22;35079;52.704;13.814;2022-11-20T16:02:14;1.60;99.90
49242;DHT22;35079;52.704;13.814;2022-11-20T16:04:41;1.50;99.90
49242;DHT22;35079;52.704;13.814;2022-11-20T16:07:07;1.60;99.90
49242;DHT22;35079;52.704;13.814;2022-11-20T16:09:32;1.50;99.90
49242;DHT22;35079;52.704;13.814;2022-11-20T16:12:00;1.50;99.90
49242;DHT22;35079;52.704;13.814;2022-11-20T16:14:26;1.50;99.90
49242;DHT22;35079;52.704;13.814;2022-11-20T16:20:47;1.50;99.90
49242;DHT22;35079;52.704;13.814;2022-11-20T16:23:13;1.40;99.90
49242;DHT22;35079;52.704;13.814;2022-11-20T16:25:38;1.30;99.90
49242;DHT22;35079;52.704;13.814;2022-11-20T16:28:04;1.40;99.90
49242;DHT22;35079;52.704;13.814;2022-11-20T16:30:31;1.40;99.90
49242;DHT22;35079;52.704;13.814;2022-11-20T16:32:58;1.30;99.90
49242;DHT22;35079;52.704;13.814;2022-11-20T16:35:26;1.30;99.90
49242;DHT22;35079;52.704;13.814;2022-11-20T16:37:52;1.30;99.90
49242;DHT22;35079;52.704;13.814;2022-11-20T16:40:18;1.40;99.90
49242;DHT22;35079;52.704;13.814;2022-11-20T16:42:43;1.40;99.90
49242;DHT22;35079;52.704;13.814;2022-11-20T16:45:09;1.40;99.90
49242;DHT22;35079;52.704;13.814;2022-11-20T16:47:35;1.40;99.90
49242;DHT22;35079;52.704;13.814;2022-11-20T16:50:02;1.40;99.90
49242;DHT22;35079;52.704;13.814;2022-11-20T16:52:29;1.50;99.90
49242;DHT22;35079;52.704;13.814;2022-11-20T16:54:55;1.30;99.90
49242;DHT22;35079;52.704;13.814;2022-11-20T16:57:20;1.40;99.90
49242;DHT22;35079;52.704;13.814;2022-11-20T16:59:47;1.50;99.90
49242;DHT22;35079;52.704;13.814;2022-11-20T17:02:12;1.40;99.90
49242;DHT22;35079;52.704;13.814;2022-11-20T17:04:38;1.40;99.90
49242;DHT22;35079;52.704;13.814;2022-11-20T17:07:04;1.50;99.90
49242;DHT22;35079;52.704;13.814;2022-11-20T17:09:29;1.50;99.90
49242;DHT22;35079;52.704;13.814;2022-11-20T17:11:55;1.40;99.90
49242;DHT22;35079;52.704;13.814;2022-11-20T17:14:20;1.40;99.90
49242;DHT22;35079;52.704;13.814;2022-11-20T17:16:46;1.40;99.90
49242;DHT22;35079;52.704;13.814;2022-11-20T17:19:13;1.40;99.90
49242;DHT22;35079;52.704;13.814;2022-11-20T17:21:39;1.30;99.90
49242;DHT22;35079;52.704;13.814;2022-11-20T17:24:09;1.30;99.90
49242;DHT22;35079;52.704;13.814;2022-11-20T17:26:36;1.40;99.90
49242;DHT22;35079;52.704;13.814;2022-11-20T17:29:13;1.40;99.90
49242;DHT22;35079;52.704;13.814;2022-11-20T17:31:39;1.30;99.90
49242;DHT22;35079;52.704;13.814;2022-11-20T17:34:07;1.30;99.90
49242;DHT22;35079;52.704;13.814;2022-11-20T17:36:33;1.40;99.90
49242;DHT22;35079;52.704;13.814;2022-11-20T17:38:59;1.40;99.90
49242;DHT22;35079;52.704;13.814;2022-11-20T17:41:27;1.30;99.90